sensor_id;sensor_type;location;lat;lon;timestamp;temperature;humidity
40638;DHT22;26336;44.696;10.622;2023-04-01T00:02:03;14.40;99.90
40638;DHT22;26336;44.696;10.622;2023-04-01T00:05:07;14.40;99.90
40638;DHT22;26336;44.696;10.622;2023-04-01T00:08:11;14.40;99.90
40638;DHT22;26336;44.696;10.622;2023-04-01T00:11:15;14.30;99.90
40638;DHT22;26336;44.696;10.622;2023-04-01T00:14:19;14.30;99.90
40638;DHT22;26336;44.696;10.622;2023-04-01T00:17:23;14.30;99.90
40638;DHT22;26336;44.696;10.622;2023-04-01T00:20:27;14.20;99.90
40638;DHT22;26336;44.696;10.622;2023-04-01T00:23:32;14.20;99.90
40638;DHT22;26336;44.696;10.622;2023-04-01T00:26:36;14.30;99.90
40638;DHT22;26336;44.696;10.622;2023-04-01T00:29:43;14.20;99.90
40638;DHT22;26336;44.696;10.622;2023-04-01T00:32:51;14.20;99.90
40638;DHT22;26336;44.696;10.622;2023-04-01T00:35:55;14.20;99.90
40638;DHT22;26336;44.696;10.622;2023-04-01T00:38:59;14.20;99.90
40638;DHT22;26336;44.696;10.622;2023-04-01T00:42:03;14.10;99.90
40638;DHT22;26336;44.696;10.622;2023-04-01T00:45:24;14.10;99.90
40638;DHT22;26336;44.696;10.622;2023-04-01T00:48:38;14.10;99.90
40638;DHT22;26336;44.696;10.622;2023-04-01T00:51:43;14.10;99.90
40638;DHT22;26336;44.696;10.622;2023-04-01T00:54:49;14.00;99.90
40638;DHT22;26336;44.696;10.622;2023-04-01T00:57:54;14.00;99.90
40638;DHT22;26336;44.696;10.622;2023-04-01T01:00:59;14.00;99.90
40638;DHT22;26336;44.696;10.622;2023-04-01T01:04:03;13.90;99.90
40638;DHT22;26336;44.696;10.622;2023-04-01T01:07:13;13.90;99.90
40638;DHT22;26336;44.696;10.622;2023-04-01T01:10:31;13.90;99.90
40638;DHT22;26336;44.696;10.622;2023-04-01T01:13:40;13.90;99.90
40638;DHT22;26336;44.696;10.622;2023-04-01T01:16:49;13.80;99.90
40638;DHT22;26336;44.696;10.622;2023-04-01T01:33:13;13.70;99.90
40638;DHT22;26336;44.696;10.622;2023-04-01T01:36:18;13.60;99.90
40638;DHT22;26336;44.696;10.622;2023-04-01T01:39:25;13.60;99.90
40638;DHT22;26336;44.696;10.622;2023-04-01T01:42:32;13.50;99.90
40638;DHT22;26336;44.696;10.622;2023-04-01T01:45:39;13.30;99.90
40638;DHT22;26336;44.696;10.622;2023-04-01T01:48:44;13.20;99.90
40638;DHT22;26336;44.696;10.622;2023-04-01T01:51:49;13.20;99.90
40638;DHT22;26336;44.696;10.622;2023-04-01T01:54:53;13.10;99.90
40638;DHT22;26336;44.696;10.622;2023-04-01T01:58:01;13.10;99.90
40638;DHT22;26336;44.696;10.622;2023-04-01T02:01:07;13.10;99.90
40638;DHT22;26336;44.696;10.622;2023-04-01T02:04:12;13.10;99.90
40638;DHT22;26336;44.696;10.622;2023-04-01T02:07:24;12.90;99.90
40638;DHT22;26336;44.696;10.622;2023-04-01T02:10:31;12.90;99.90
40638;DHT22;26336;44.696;10.622;2023-04-01T02:13:55;12.90;99.90
40638;DHT22;26336;44.696;10.622;2023-04-01T02:17:10;12.80;99.90
40638;DHT22;26336;44.696;10.622;2023-04-01T02:20:18;12.70;99.90
40638;DHT22;26336;44.696;10.622;2023-04-01T02:23:24;12.60;99.90
40638;DHT22;26336;44.696;10.622;2023-04-01T02:26:27;12.30;99.90
40638;DHT22;26336;44.696;10.622;2023-04-01T02:29:31;12.40;99.90
40638;DHT22;26336;44.696;10.622;2023-04-01T02:32:36;12.20;99.90
40638;DHT22;26336;44.696;10.622;2023-04-01T02:35:41;12.10;99.90
40638;DHT22;26336;44.696;10.622;2023-04-01T02:38:45;11.80;99.90
40638;DHT22;26336;44.696;10.622;2023-04-01T02:41:49;11.60;99.90
40638;DHT22;26336;44.696;10.622;2023-04-01T02:44:53;11.70;99.90
40638;DHT22;26336;44.696;10.622;2023-04-01T02:47:57;11.90;99.90
40638;DHT22;26336;44.696;10.622;2023-04-01T02:51:01;11.80;99.90
40638;DHT22;26336;44.696;10.622;2023-04-01T02:54:05;11.90;99.90
40638;DHT22;26336;44.696;10.622;2023-04-01T02:57:09;12.10;99.90
40638;DHT22;26336;44.696;10.622;2023-04-01T03:00:13;12.20;99.90
40638;DHT22;26336;44.696;10.622;2023-04-01T03:03:17;12.30;99.90
40638;DHT22;26336;44.696;10.622;2023-04-01T03:06:22;12.40;99.90
40638;DHT22;26336;44.696;10.622;2023-04-01T03:09:25;12.40;99.90
40638;DHT22;26336;44.696;10.622;2023-04-01T03:12:29;12.50;99.90
40638;DHT22;26336;44.696;10.622;2023-04-01T03:15:34;12.50;99.90
40638;DHT22;26336;44.696;10.622;2023-04-01T03:18:38;12.40;99.90
40638;DHT22;26336;44.696;10.622;2023-04-01T03:21:42;12.40;99.90
40638;DHT22;26336;44.696;10.622;2023-04-01T03:24:46;12.40;99.90
40638;DHT22;26336;44.696;10.622;2023-04-01T03:27:50;12.40;99.90
40638;DHT22;26336;44.696;10.622;2023-04-01T03:30:54;12.40;99.90
40638;DHT22;26336;44.696;10.622;2023-04-01T03:33:59;12.30;99.90
40638;DHT22;26336;44.696;10.622;2023-04-01T03:37:02;12.20;99.90
40638;DHT22;26336;44.696;10.622;2023-04-01T03:40:06;12.20;99.90
40638;DHT22;26336;44.696;10.622;2023-04-01T03:43:10;12.20;99.90
40638;DHT22;26336;44.696;10.622;2023-04-01T03:46:19;12.20;99.90
40638;DHT22;26336;44.696;10.622;2023-04-01T03:49:23;12.20;99.90
40638;DHT22;26336;44.696;10.622;2023-04-01T03:52:30;12.20;99.90
40638;DHT22;26336;44.696;10.622;2023-04-01T03:55:37;12.20;99.90
40638;DHT22;26336;44.696;10.622;2023-04-01T03:58:42;12.20;99.90
40638;DHT22;26336;44.696;10.622;2023-04-01T04:01:50;12.10;99.90
40638;DHT22;26336;44.696;10.622;2023-04-01T04:04:53;12.10;99.90
40638;DHT22;26336;44.696;10.622;2023-04-01T04:07:58;12.00;99.90
40638;DHT22;26336;44.696;10.622;2023-04-01T04:11:04;12.00;99.90
40638;DHT22;26336;44.696;10.622;2023-04-01T04:14:08;12.00;99.90
40638;DHT22;26336;44.696;10.622;2023-04-01T04:17:13;12.00;99.90
40638;DHT22;26336;44.696;10.622;2023-04-01T04:20:20;12.00;99.90
40638;DHT22;26336;44.696;10.622;2023-04-01T04:23:24;12.00;99.90
40638;DHT22;26336;44.696;10.622;2023-04-01T04:26:28;11.90;99.90
40638;DHT22;26336;44.696;10.622;2023-04-01T04:29:36;11.90;99.90
40638;DHT22;26336;44.696;10.622;2023-04-01T04:32:40;11.80;99.90
40638;DHT22;26336;44.696;10.622;2023-04-01T04:35:45;11.80;99.90
40638;DHT22;26336;44.696;10.622;2023-04-01T04:38:50;11.70;99.90
40638;DHT22;26336;44.696;10.622;2023-04-01T04:41:54;11.70;99.90
40638;DHT22;26336;44.696;10.622;2023-04-01T04:44:58;11.70;99.90
40638;DHT22;26336;44.696;10.622;2023-04-01T04:48:01;11.70;99.90
40638;DHT22;26336;44.696;10.622;2023-04-01T04:51:05;11.70;99.90
40638;DHT22;26336;44.696;10.622;2023-04-01T04:54:09;11.60;99.90
40638;DHT22;26336;44.696;10.622;2023-04-01T04:57:27;11.60;99.90
40638;DHT22;26336;44.696;10.622;2023-04-01T05:00:32;11.50;99.90
40638;DHT22;26336;44.696;10.622;2023-04-01T05:03:38;11.50;99.90
40638;DHT22;26336;44.696;10.622;2023-04-01T05:06:43;11.50;99.90
40638;DHT22;26336;44.696;10.622;2023-04-01T05:09:48;11.40;99.90
40638;DHT22;26336;44.696;10.622;2023-04-01T05:12:52;11.30;99.90
40638;DHT22;26336;44.696;10.622;2023-04-01T05:15:58;11.10;99.90
40638;DHT22;26336;44.696;10.622;2023-04-01T05:19:02;11.00;99.90
40638;DHT22;26336;44.696;10.622;2023-04-01T05:22:06;11.00;99.90
40638;DHT22;26336;44.696;10.622;2023-04-01T05:25:10;11.10;99.90
40638;DHT22;26336;44.696;10.622;2023-04-01T05:28:15;11.10;99.90
40638;DHT22;26336;44.696;10.622;2023-04-01T05:31:20;11.20;99.90
40638;DHT22;26336;44.696;10.622;2023-04-01T05:34:26;11.20;99.90
40638;DHT22;26336;44.696;10.622;2023-04-01T05:37:30;11.20;99.90
40638;DHT22;26336;44.696;10.622;2023-04-01T05:40:34;11.10;99.90
40638;DHT22;26336;44.696;10.622;2023-04-01T05:43:38;11.10;99.90
40638;DHT22;26336;44.696;10.622;2023-04-01T05:47:03;11.10;99.90
40638;DHT22;26336;44.696;10.622;2023-04-01T05:50:08;11.10;99.90
40638;DHT22;26336;44.696;10.622;2023-04-01T05:53:12;11.10;99.90
40638;DHT22;26336;44.696;10.622;2023-04-01T05:56:18;11.10;99.90
40638;DHT22;26336;44.696;10.622;2023-04-01T05:59:26;11.10;99.90
40638;DHT22;26336;44.696;10.622;2023-04-01T06:02:30;11.20;99.90
40638;DHT22;26336;44.696;10.622;2023-04-01T06:05:37;11.10;99.90
40638;DHT22;26336;44.696;10.622;2023-04-01T06:08:42;11.20;99.90
40638;DHT22;26336;44.696;10.622;2023-04-01T06:31:20;11.40;99.90
40638;DHT22;26336;44.696;10.622;2023-04-01T06:38:21;11.50;99.90
40638;DHT22;26336;44.696;10.622;2023-04-01T06:44:54;11.70;99.90
40638;DHT22;26336;44.696;10.622;2023-04-01T06:54:58;11.90;99.90
40638;DHT22;26336;44.696;10.622;2023-04-01T06:58:48;11.90;99.90
40638;DHT22;26336;44.696;10.622;2023-04-01T07:02:12;12.00;99.90
40638;DHT22;26336;44.696;10.622;2023-04-01T07:05:19;12.00;99.90
40638;DHT22;26336;44.696;10.622;2023-04-01T07:08:24;12.10;99.90
40638;DHT22;26336;44.696;10.622;2023-04-01T07:11:31;12.10;99.90
40638;DHT22;26336;44.696;10.622;2023-04-01T07:14:55;12.20;99.90
40638;DHT22;26336;44.696;10.622;2023-04-01T07:18:02;12.20;99.90
40638;DHT22;26336;44.696;10.622;2023-04-01T07:21:19;12.30;99.90
40638;DHT22;26336;44.696;10.622;2023-04-01T07:24:27;12.40;99.90
40638;DHT22;26336;44.696;10.622;2023-04-01T07:27:45;12.40;99.90
40638;DHT22;26336;44.696;10.622;2023-04-01T07:37:01;12.60;99.90
40638;DHT22;26336;44.696;10.622;2023-04-01T07:57:19;12.90;99.90
40638;DHT22;26336;44.696;10.622;2023-04-01T08:00:39;13.00;99.90
40638;DHT22;26336;44.696;10.622;2023-04-01T08:07:15;13.20;99.90
40638;DHT22;26336;44.696;10.622;2023-04-01T08:10:54;13.20;99.90
40638;DHT22;26336;44.696;10.622;2023-04-01T08:14:28;13.30;99.90
40638;DHT22;26336;44.696;10.622;2023-04-01T08:21:12;13.50;99.90
40638;DHT22;26336;44.696;10.622;2023-04-01T08:24:25;13.60;99.90
40638;DHT22;26336;44.696;10.622;2023-04-01T08:30:40;13.80;99.90
40638;DHT22;26336;44.696;10.622;2023-04-01T08:33:46;13.90;99.90
40638;DHT22;26336;44.696;10.622;2023-04-01T08:37:25;14.00;99.90
40638;DHT22;26336;44.696;10.622;2023-04-01T08:40:37;14.10;99.90
40638;DHT22;26336;44.696;10.622;2023-04-01T08:56:47;14.80;98.70
40638;DHT22;26336;44.696;10.622;2023-04-01T09:03:44;15.00;98.80
40638;DHT22;26336;44.696;10.622;2023-04-01T09:13:34;15.30;98.70
40638;DHT22;26336;44.696;10.622;2023-04-01T09:16:51;15.40;98.30
40638;DHT22;26336;44.696;10.622;2023-04-01T09:36:04;15.90;98.40
40638;DHT22;26336;44.696;10.622;2023-04-01T10:06:18;16.50;97.40
40638;DHT22;26336;44.696;10.622;2023-04-01T10:12:49;16.60;95.70
40638;DHT22;26336;44.696;10.622;2023-04-01T10:35:49;17.10;95.50
40638;DHT22;26336;44.696;10.622;2023-04-01T10:49:37;17.30;95.40
40638;DHT22;26336;44.696;10.622;2023-04-01T10:52:49;17.40;94.80
40638;DHT22;26336;44.696;10.622;2023-04-01T10:57:01;17.50;94.50
40638;DHT22;26336;44.696;10.622;2023-04-01T11:23:15;18.10;92.50
40638;DHT22;26336;44.696;10.622;2023-04-01T11:26:41;18.20;92.70
40638;DHT22;26336;44.696;10.622;2023-04-01T11:30:09;18.30;92.60
40638;DHT22;26336;44.696;10.622;2023-04-01T11:33:36;18.40;92.50
40638;DHT22;26336;44.696;10.622;2023-04-01T11:36:52;18.40;89.90
40638;DHT22;26336;44.696;10.622;2023-04-01T11:54:05;18.80;70.90
40638;DHT22;26336;44.696;10.622;2023-04-01T12:03:37;19.10;66.70
40638;DHT22;26336;44.696;10.622;2023-04-01T12:06:47;19.10;65.70
40638;DHT22;26336;44.696;10.622;2023-04-01T12:09:58;19.20;64.80
40638;DHT22;26336;44.696;10.622;2023-04-01T12:13:11;19.30;64.10
40638;DHT22;26336;44.696;10.622;2023-04-01T12:23:20;19.60;63.40
40638;DHT22;26336;44.696;10.622;2023-04-01T12:42:28;19.70;58.70
40638;DHT22;26336;44.696;10.622;2023-04-01T12:45:35;19.70;58.00
40638;DHT22;26336;44.696;10.622;2023-04-01T12:52:09;19.70;56.80
40638;DHT22;26336;44.696;10.622;2023-04-01T13:07:45;19.80;57.50
40638;DHT22;26336;44.696;10.622;2023-04-01T13:17:12;19.90;58.30
40638;DHT22;26336;44.696;10.622;2023-04-01T13:20:28;19.90;58.30
40638;DHT22;26336;44.696;10.622;2023-04-01T13:30:38;20.10;55.80
40638;DHT22;26336;44.696;10.622;2023-04-01T13:36:45;20.00;56.10
40638;DHT22;26336;44.696;10.622;2023-04-01T13:49:36;20.00;57.20
40638;DHT22;26336;44.696;10.622;2023-04-01T13:56:01;20.00;55.40
40638;DHT22;26336;44.696;10.622;2023-04-01T14:05:46;19.90;55.60
40638;DHT22;26336;44.696;10.622;2023-04-01T14:12:38;19.90;56.80
40638;DHT22;26336;44.696;10.622;2023-04-01T14:15:54;20.00;57.40
40638;DHT22;26336;44.696;10.622;2023-04-01T14:19:08;20.00;57.10
40638;DHT22;26336;44.696;10.622;2023-04-01T14:35:27;20.00;57.60
40638;DHT22;26336;44.696;10.622;2023-04-01T14:48:53;20.10;57.10
40638;DHT22;26336;44.696;10.622;2023-04-01T14:52:04;20.00;57.30
40638;DHT22;26336;44.696;10.622;2023-04-01T14:58:41;20.10;58.60
40638;DHT22;26336;44.696;10.622;2023-04-01T15:08:44;20.10;57.50
40638;DHT22;26336;44.696;10.622;2023-04-01T15:37:51;20.00;57.70
40638;DHT22;26336;44.696;10.622;2023-04-01T15:41:03;20.10;56.80
40638;DHT22;26336;44.696;10.622;2023-04-01T15:47:37;20.00;57.20
40638;DHT22;26336;44.696;10.622;2023-04-01T15:50:46;20.00;56.60
40638;DHT22;26336;44.696;10.622;2023-04-01T16:06:52;20.00;56.00
40638;DHT22;26336;44.696;10.622;2023-04-01T16:13:32;20.00;57.20
40638;DHT22;26336;44.696;10.622;2023-04-01T16:16:53;20.00;57.50
40638;DHT22;26336;44.696;10.622;2023-04-01T16:20:20;19.90;56.20
40638;DHT22;26336;44.696;10.622;2023-04-01T16:23:39;19.90;59.00
40638;DHT22;26336;44.696;10.622;2023-04-01T16:26:53;19.80;58.10
40638;DHT22;26336;44.696;10.622;2023-04-01T16:30:00;19.70;59.40
40638;DHT22;26336;44.696;10.622;2023-04-01T16:36:22;19.60;59.80
40638;DHT22;26336;44.696;10.622;2023-04-01T16:39:37;19.50;59.60
40638;DHT22;26336;44.696;10.622;2023-04-01T16:42:53;19.40;60.00
40638;DHT22;26336;44.696;10.622;2023-04-01T17:05:11;19.00;61.60
40638;DHT22;26336;44.696;10.622;2023-04-01T17:08:22;19.00;62.30
40638;DHT22;26336;44.696;10.622;2023-04-01T17:11:27;18.90;61.90
40638;DHT22;26336;44.696;10.622;2023-04-01T17:17:51;18.80;62.60
40638;DHT22;26336;44.696;10.622;2023-04-01T17:21:03;18.80;62.40
40638;DHT22;26336;44.696;10.622;2023-04-01T18:00:03;18.20;65.80
40638;DHT22;26336;44.696;10.622;2023-04-01T18:06:40;18.10;65.10
40638;DHT22;26336;44.696;10.622;2023-04-01T18:09:59;18.00;65.10
40638;DHT22;26336;44.696;10.622;2023-04-01T18:19:46;17.90;65.30
40638;DHT22;26336;44.696;10.622;2023-04-01T18:26:04;17.80;64.70
40638;DHT22;26336;44.696;10.622;2023-04-01T18:32:24;17.70;65.20
40638;DHT22;26336;44.696;10.622;2023-04-01T18:38:57;17.60;65.40
40638;DHT22;26336;44.696;10.622;2023-04-01T18:42:14;17.60;65.40
40638;DHT22;26336;44.696;10.622;2023-04-01T18:51:58;17.50;66.60
40638;DHT22;26336;44.696;10.622;2023-04-01T19:01:25;16.90;68.50
40638;DHT22;26336;44.696;10.622;2023-04-01T19:04:31;16.90;68.50
40638;DHT22;26336;44.696;10.622;2023-04-01T19:20:14;16.90;69.80
40638;DHT22;26336;44.696;10.622;2023-04-01T19:23:40;17.00;69.80
40638;DHT22;26336;44.696;10.622;2023-04-01T19:36:39;17.10;70.50
40638;DHT22;26336;44.696;10.622;2023-04-01T19:39:51;17.10;70.90
40638;DHT22;26336;44.696;10.622;2023-04-01T19:46:37;16.90;70.20
40638;DHT22;26336;44.696;10.622;2023-04-01T19:52:50;16.80;72.30
40638;DHT22;26336;44.696;10.622;2023-04-01T19:56:16;16.80;70.70
40638;DHT22;26336;44.696;10.622;2023-04-01T20:16:04;16.90;71.40
40638;DHT22;26336;44.696;10.622;2023-04-01T20:26:11;16.50;72.10
40638;DHT22;26336;44.696;10.622;2023-04-01T20:32:59;16.60;73.20
40638;DHT22;26336;44.696;10.622;2023-04-01T20:43:16;16.50;71.70
40638;DHT22;26336;44.696;10.622;2023-04-01T20:56:23;16.40;70.50
40638;DHT22;26336;44.696;10.622;2023-04-01T20:59:43;16.40;70.30
40638;DHT22;26336;44.696;10.622;2023-04-01T21:03:18;16.40;70.50
40638;DHT22;26336;44.696;10.622;2023-04-01T21:09:50;16.40;69.80
40638;DHT22;26336;44.696;10.622;2023-04-01T21:13:00;16.40;69.70
40638;DHT22;26336;44.696;10.622;2023-04-01T21:16:41;16.30;69.90
40638;DHT22;26336;44.696;10.622;2023-04-01T21:19:57;16.30;70.50
40638;DHT22;26336;44.696;10.622;2023-04-01T21:33:41;16.30;68.70
40638;DHT22;26336;44.696;10.622;2023-04-01T21:43:24;16.30;69.00
40638;DHT22;26336;44.696;10.622;2023-04-01T22:05:30;15.90;70.70
40638;DHT22;26336;44.696;10.622;2023-04-01T22:11:53;15.70;71.10
40638;DHT22;26336;44.696;10.622;2023-04-01T22:15:25;15.50;71.90
40638;DHT22;26336;44.696;10.622;2023-04-01T22:18:28;15.40;71.20
40638;DHT22;26336;44.696;10.622;2023-04-01T22:22:00;15.50;72.00
40638;DHT22;26336;44.696;10.622;2023-04-01T22:31:44;15.60;71.20
40638;DHT22;26336;44.696;10.622;2023-04-01T22:34:54;15.60;72.20
40638;DHT22;26336;44.696;10.622;2023-04-01T22:47:42;15.50;73.60
40638;DHT22;26336;44.696;10.622;2023-04-01T22:50:58;15.40;73.40
40638;DHT22;26336;44.696;10.622;2023-04-01T22:54:15;15.30;73.60
40638;DHT22;26336;44.696;10.622;2023-04-01T23:03:45;15.30;74.10
40638;DHT22;26336;44.696;10.622;2023-04-01T23:06:51;15.40;74.40
40638;DHT22;26336;44.696;10.622;2023-04-01T23:09:56;15.50;74.20
40638;DHT22;26336;44.696;10.622;2023-04-01T23:13:00;15.40;73.80
40638;DHT22;26336;44.696;10.622;2023-04-01T23:16:05;15.30;75.10
40638;DHT22;26336;44.696;10.622;2023-04-01T23:22:31;15.10;74.60
40638;DHT22;26336;44.696;10.622;2023-04-01T23:25:39;15.20;75.60
40638;DHT22;26336;44.696;10.622;2023-04-01T23:28:48;15.20;76.00
40638;DHT22;26336;44.696;10.622;2023-04-01T23:31:59;15.10;76.00
40638;DHT22;26336;44.696;10.622;2023-04-01T23:35:11;15.10;76.00
40638;DHT22;26336;44.696;10.622;2023-04-01T23:38:20;15.20;76.40
40638;DHT22;26336;44.696;10.622;2023-04-01T23:41:25;15.20;76.50
40638;DHT22;26336;44.696;10.622;2023-04-01T23:44:30;15.20;76.90
40638;DHT22;26336;44.696;10.622;2023-04-01T23:47:35;15.00;77.70
40638;DHT22;26336;44.696;10.622;2023-04-01T23:50:41;14.70;79.00
40638;DHT22;26336;44.696;10.622;2023-04-01T23:53:45;14.50;79.40
40638;DHT22;26336;44.696;10.622;2023-04-01T23:56:53;14.30;80.10
